Time;durP1;ratioP1;P1;durP2;ratioP2;P2;SDS_P1;SDS_P2;PMS_P1;PMS_P2;Temp;Humidity;BMP_temperature;BMP_pressure;BME280_temperature;BME280_humidity;BME280_pressure;Samples;Min_cycle;Max_cycle;Signal;HPM_P1;HPM_P2
2022/05/13 00:00:52;;;;;;;7.42;4.12;;;;;;;15.45;61.95;99284.19;1695067;84;20982;-78
2022/05/13 00:03:20;;;;;;;8.55;4.12;;;;;;;15.43;62.24;99288.64;1692286;83;21039;-78
2022/05/13 00:05:49;;;;;;;7.78;4.22;;;;;;;15.37;62.50;99287.59;1686213;85;21053;-79
2022/05/13 00:08:14;;;;;;;7.37;4.42;;;;;;;15.36;62.82;99290.67;1686352;84;20977;-79
2022/05/13 00:10:41;;;;;;;12.07;4.42;;;;;;;15.35;62.46;99284.19;1667534;84;21048;-80
2022/05/13 00:13:09;;;;;;;6.97;4.55;;;;;;;15.32;62.75;99282.55;1698076;84;20996;-79
2022/05/13 00:15:37;;;;;;;11.22;4.72;;;;;;;15.25;63.86;99279.31;1698780;84;21006;-79
2022/05/13 00:18:03;;;;;;;8.25;4.78;;;;;;;15.29;63.26;99288.75;1689799;84;21482;-79
2022/05/13 00:20:30;;;;;;;14.25;5.28;;;;;;;15.24;63.30;99292.03;1677736;84;20989;-78
2022/05/13 00:22:57;;;;;;;11.88;4.67;;;;;;;15.18;64.63;99295.34;1691708;84;21476;-78
2022/05/13 00:25:28;;;;;;;10.05;5.00;;;;;;;15.13;64.44;99289.45;1678648;84;20988;-80
2022/05/13 00:27:59;;;;;;;11.10;5.10;;;;;;;15.08;64.17;99286.56;1696957;84;20979;-78
2022/05/13 00:30:28;;;;;;;9.30;4.67;;;;;;;15.02;64.03;99283.33;1698757;84;21007;-79
2022/05/13 00:32:55;;;;;;;10.10;4.70;;;;;;;14.99;63.45;99281.69;1696316;84;21026;-77
2022/05/13 00:35:23;;;;;;;8.60;4.33;;;;;;;14.99;63.30;99283.47;1696041;84;20976;-79
2022/05/13 00:37:49;;;;;;;8.80;4.50;;;;;;;14.96;64.88;99287.06;1698623;84;21038;-78
2022/05/13 00:40:20;;;;;;;11.33;4.75;;;;;;;14.95;64.15;99280.58;1694603;84;20980;-77
2022/05/13 00:42:48;;;;;;;10.60;5.33;;;;;;;14.91;64.12;99282.45;1693521;84;20946;-78
2022/05/13 00:45:16;;;;;;;12.47;4.78;;;;;;;14.87;64.77;99278.27;1697346;84;20975;-78
2022/05/13 00:47:44;;;;;;;8.98;4.72;;;;;;;14.84;63.49;99277.94;1684872;84;20993;-78
2022/05/13 00:50:14;;;;;;;10.18;4.70;;;;;;;14.80;64.82;99278.97;1694762;84;20959;-79
2022/05/13 00:52:45;;;;;;;9.23;4.65;;;;;;;14.78;65.42;99282.54;1693235;84;21478;-77
2022/05/13 00:55:23;;;;;;;8.38;4.40;;;;;;;14.76;63.66;99285.67;1698840;84;21031;-78
2022/05/13 00:57:52;;;;;;;8.63;5.03;;;;;;;14.75;64.09;99290.53;1697385;84;20988;-79
2022/05/13 01:00:19;;;;;;;9.18;4.60;;;;;;;14.70;67.06;99286.33;1698901;84;20971;-79
2022/05/13 01:02:46;;;;;;;9.75;4.20;;;;;;;14.64;66.56;99277.84;1695231;83;21027;-78
2022/05/13 01:05:17;;;;;;;10.68;4.45;;;;;;;14.62;66.46;99283.16;1681643;84;20983;-76
2022/05/13 01:07:43;;;;;;;9.00;4.10;;;;;;;14.59;66.96;99287.65;1690981;84;21002;-79
2022/05/13 01:10:21;;;;;;;8.23;4.83;;;;;;;14.58;66.89;99291.16;1688433;84;21006;-77
2022/05/13 01:12:53;;;;;;;17.40;4.78;;;;;;;14.48;67.96;99284.09;1691962;84;21030;-80
2022/05/13 01:15:25;;;;;;;7.58;4.75;;;;;;;14.44;67.25;99292.96;1681663;84;21043;-79
2022/05/13 01:18:06;;;;;;;13.18;5.12;;;;;;;14.40;68.86;99285.68;1691681;84;21522;-81
2022/05/13 01:20:46;;;;;;;9.90;4.60;;;;;;;14.34;68.77;99287.22;1685623;84;21035;-79
2022/05/13 01:23:32;;;;;;;13.18;5.12;;;;;;;14.32;67.07;99283.81;1669395;84;20971;-79
2022/05/13 01:26:04;;;;;;;10.48;4.70;;;;;;;14.29;67.73;99283.94;1693092;84;20971;-78
2022/05/13 01:28:35;;;;;;;11.38;4.92;;;;;;;14.27;68.46;99278.77;1677317;84;20991;-77
2022/05/13 01:31:07;;;;;;;10.18;5.00;;;;;;;14.27;67.51;99273.53;1691153;84;21522;-78
2022/05/13 01:33:35;;;;;;;11.08;5.33;;;;;;;14.28;69.27;99276.99;1691309;84;21474;-79
2022/05/13 01:36:05;;;;;;;9.85;4.92;;;;;;;14.29;70.35;99276.94;1694052;84;21459;-77
2022/05/13 01:38:36;;;;;;;13.50;4.47;;;;;;;14.30;68.92;99276.48;1689420;84;20994;-80
2022/05/13 01:41:06;;;;;;;9.93;4.83;;;;;;;14.31;69.37;99272.97;1686739;84;21558;-78
2022/05/13 01:43:32;;;;;;;10.43;5.00;;;;;;;14.28;70.51;99267.41;1697263;84;20979;-79
2022/05/13 01:45:59;;;;;;;8.43;4.78;;;;;;;14.27;69.94;99277.45;1688755;84;21006;-76
2022/05/13 01:48:27;;;;;;;7.53;4.53;;;;;;;14.30;69.66;99264.71;1695464;84;21451;-78
2022/05/13 01:50:55;;;;;;;9.28;4.85;;;;;;;14.30;69.22;99268.63;1695494;84;20977;-78
2022/05/13 01:53:22;;;;;;;8.85;4.70;;;;;;;14.32;70.14;99260.27;1696974;84;21419;-80
2022/05/13 01:55:48;;;;;;;9.20;4.75;;;;;;;14.35;68.63;99261.48;1696531;84;21769;-78
2022/05/13 01:58:19;;;;;;;10.58;5.53;;;;;;;14.36;68.39;99260.55;1685622;84;21044;-81
2022/05/13 02:00:48;;;;;;;10.58;5.10;;;;;;;14.38;69.46;99262.66;1696933;84;20995;-78
2022/05/13 02:06:00;;;;;;;9.05;4.87;;;;;;;14.38;68.64;99261.34;1697278;84;20984;-77
2022/05/13 02:08:27;;;;;;;8.40;5.00;;;;;;;14.36;67.71;99263.17;1693187;84;20971;-79
2022/05/13 02:10:54;;;;;;;9.25;5.12;;;;;;;14.34;67.64;99267.61;1698610;84;21491;-78
2022/05/13 02:13:21;;;;;;;7.25;4.17;;;;;;;14.30;69.55;99262.09;1690819;84;20961;-79
2022/05/13 02:15:49;;;;;;;9.18;4.80;;;;;;;14.27;68.33;99260.92;1693351;84;21031;-78
2022/05/13 02:18:16;;;;;;;8.20;4.72;;;;;;;14.28;67.12;99261.30;1689313;84;20944;-77
2022/05/13 02:20:42;;;;;;;9.68;4.47;;;;;;;14.26;67.63;99269.20;1670640;84;21031;-77
2022/05/13 02:23:09;;;;;;;9.23;4.67;;;;;;;14.24;68.80;99259.71;1693649;84;21467;-80
2022/05/13 02:25:36;;;;;;;8.68;4.95;;;;;;;14.22;69.42;99266.77;1690455;84;21023;-80
2022/05/13 02:28:04;;;;;;;9.50;4.72;;;;;;;14.23;68.38;99267.17;1670986;86;20995;-78
2022/05/13 02:30:31;;;;;;;11.48;5.40;;;;;;;14.16;69.92;99264.38;1670759;86;21003;-79
2022/05/13 02:32:58;;;;;;;12.00;5.65;;;;;;;14.09;70.75;99261.99;1670979;86;21503;-77
2022/05/13 02:35:25;;;;;;;9.98;4.85;;;;;;;14.08;68.98;99259.43;1671025;86;21027;-78
2022/05/13 02:37:52;;;;;;;13.60;5.72;;;;;;;14.03;68.21;99263.53;1671190;85;20964;-81
2022/05/13 02:40:19;;;;;;;13.95;5.33;;;;;;;13.97;68.55;99263.75;1671101;85;21048;-78
2022/05/13 02:42:46;;;;;;;11.10;5.35;;;;;;;13.92;68.23;99260.44;1671121;86;21051;-79
2022/05/13 02:45:12;;;;;;;9.23;5.35;;;;;;;13.86;68.09;99260.20;1671158;85;21062;-79
2022/05/13 02:47:41;;;;;;;10.32;5.17;;;;;;;13.80;68.74;99263.04;1671278;86;20967;-80
2022/05/13 02:50:18;;;;;;;10.88;5.17;;;;;;;13.80;68.65;99256.97;1671286;86;21007;-77
2022/05/13 02:52:52;;;;;;;14.63;5.50;;;;;;;13.67;70.03;99256.10;1672014;85;21038;-78
2022/05/13 02:55:19;;;;;;;12.10;5.42;;;;;;;13.66;69.48;99258.76;1671427;86;21038;-77
2022/05/13 02:57:46;;;;;;;11.75;5.20;;;;;;;13.63;69.78;99260.19;1671107;86;21071;-77
2022/05/13 03:00:14;;;;;;;16.48;5.58;;;;;;;13.62;71.20;99257.16;1671011;86;21042;-77
2022/05/13 03:02:43;;;;;;;20.90;6.33;;;;;;;13.59;70.75;99265.97;1670653;83;21636;-79
2022/05/13 03:05:11;;;;;;;11.25;5.45;;;;;;;13.61;70.69;99268.08;1669496;85;21027;-78
2022/05/13 03:07:37;;;;;;;13.18;5.40;;;;;;;13.62;70.50;99269.77;1669305;86;21034;-79
2022/05/13 03:10:08;;;;;;;11.80;5.55;;;;;;;13.64;70.58;99274.94;1669390;86;21494;-80
2022/05/13 03:12:35;;;;;;;7.83;4.85;;;;;;;13.66;70.48;99270.52;1669252;86;21452;-80
2022/05/13 03:15:03;;;;;;;12.25;5.00;;;;;;;13.65;72.06;99269.67;1669363;85;21035;-79
2022/05/13 03:17:29;;;;;;;11.65;5.58;;;;;;;13.67;71.06;99265.70;1669361;85;21015;-77
2022/05/13 03:19:56;;;;;;;10.23;5.85;;;;;;;13.65;71.73;99263.60;1669052;85;21161;-79
2022/05/13 03:22:23;;;;;;;12.78;5.90;;;;;;;13.62;71.99;99262.39;1669364;85;21039;-78
2022/05/13 03:24:49;;;;;;;10.60;5.65;;;;;;;13.61;71.67;99261.97;1669255;86;21066;-79
2022/05/13 03:27:16;;;;;;;10.85;5.78;;;;;;;13.60;70.37;99270.27;1669395;85;20987;-78
2022/05/13 03:29:42;;;;;;;10.53;5.45;;;;;;;13.59;71.67;99257.25;1669250;86;21491;-78
2022/05/13 03:32:09;;;;;;;8.75;5.05;;;;;;;13.57;72.24;99264.30;1669392;86;21054;-78
2022/05/13 03:34:39;;;;;;;9.75;5.08;;;;;;;13.56;70.81;99270.44;1669303;86;21026;-77
2022/05/13 03:37:06;;;;;;;11.15;5.62;;;;;;;13.52;72.00;99265.31;1669263;86;21003;-78
2022/05/13 03:39:32;;;;;;;12.53;5.62;;;;;;;13.51;72.93;99268.84;1669278;86;21807;-78
2022/05/13 03:41:59;;;;;;;14.00;5.75;;;;;;;13.52;70.95;99267.92;1669327;85;21011;-77
2022/05/13 03:44:25;;;;;;;14.00;5.42;;;;;;;13.52;71.62;99272.30;1689403;84;20986;-79
2022/05/13 03:46:52;;;;;;;19.73;6.05;;;;;;;13.53;72.23;99273.56;1692018;84;21078;-77
2022/05/13 03:49:18;;;;;;;12.40;5.97;;;;;;;13.60;71.39;99275.95;1692072;84;21014;-77
2022/05/13 03:51:45;;;;;;;8.93;5.37;;;;;;;13.61;71.83;99285.05;1692021;85;21058;-79
2022/05/13 03:54:12;;;;;;;11.25;5.50;;;;;;;13.68;72.13;99285.69;1692072;84;20967;-80
2022/05/13 03:56:38;;;;;;;9.73;5.37;;;;;;;13.71;73.28;99282.98;1692097;84;21502;-77
2022/05/13 03:59:05;;;;;;;10.93;5.28;;;;;;;13.72;72.60;99288.12;1692125;84;20999;-77
2022/05/13 04:01:31;;;;;;;10.45;5.20;;;;;;;13.77;72.22;99286.69;1692086;85;21066;-77
2022/05/13 04:03:58;;;;;;;13.55;5.62;;;;;;;13.81;72.98;99288.73;1691050;84;20997;-78
2022/05/13 04:09:09;;;;;;;9.50;5.60;;;;;;;13.88;71.95;99307.20;1671130;85;21495;-79
2022/05/13 04:11:40;;;;;;;11.28;5.53;;;;;;;13.90;72.85;99299.69;1670897;85;21007;-78
2022/05/13 04:16:54;;;;;;;9.65;5.10;;;;;;;13.97;71.50;99296.42;1679162;84;21000;-78
2022/05/13 04:19:21;;;;;;;15.53;5.80;;;;;;;14.02;71.54;99301.02;1676725;84;21138;-78
2022/05/13 04:21:48;;;;;;;14.58;7.08;;;;;;;14.06;71.00;99296.54;1678902;84;20972;-77
2022/05/13 04:24:18;;;;;;;9.95;5.78;;;;;;;14.06;71.52;99301.77;1682866;84;20987;-81
2022/05/13 04:26:45;;;;;;;12.18;5.35;;;;;;;14.11;71.43;99296.78;1694475;84;20971;-77
2022/05/13 04:29:12;;;;;;;9.28;5.28;;;;;;;14.16;72.22;99300.98;1686230;84;20984;-77
2022/05/13 04:31:42;;;;;;;11.30;6.10;;;;;;;14.24;71.57;99298.94;1676651;84;21091;-80
2022/05/13 04:34:09;;;;;;;12.47;5.50;;;;;;;14.30;71.62;99296.97;1687996;84;21481;-76
2022/05/13 04:36:36;;;;;;;14.30;5.28;;;;;;;14.37;72.12;99296.73;1673333;84;20988;-77
2022/05/13 04:39:04;;;;;;;15.10;5.80;;;;;;;14.45;72.93;99305.98;1695588;84;21038;-78
2022/05/13 04:44:17;;;;;;;12.05;6.20;;;;;;;14.63;71.83;99296.62;1688529;84;20972;-77
2022/05/13 04:46:44;;;;;;;13.65;5.92;;;;;;;14.74;71.68;99308.44;1670814;84;20996;-79
2022/05/13 04:49:11;;;;;;;11.35;5.45;;;;;;;14.81;71.29;99296.83;1685853;84;20973;-79
2022/05/13 04:51:38;;;;;;;15.25;5.90;;;;;;;14.84;71.83;99293.64;1691928;84;21027;-80
2022/05/13 04:54:05;;;;;;;11.88;6.33;;;;;;;14.91;71.24;99296.86;1681712;84;20985;-79
2022/05/13 04:56:32;;;;;;;15.38;6.30;;;;;;;15.01;70.07;99292.11;1673762;84;21031;-78
2022/05/13 04:58:59;;;;;;;11.78;5.80;;;;;;;15.10;69.86;99291.75;1683796;84;20958;-77
2022/05/13 05:01:27;;;;;;;10.80;5.67;;;;;;;15.15;69.49;99295.02;1677414;84;21546;-79
2022/05/13 05:03:54;;;;;;;17.70;5.60;;;;;;;15.22;69.46;99300.84;1677536;83;21004;-78
2022/05/13 05:06:21;;;;;;;11.57;5.30;;;;;;;15.29;69.18;99295.77;1686955;83;21002;-77
2022/05/13 05:08:49;;;;;;;10.82;5.37;;;;;;;15.35;69.11;99290.27;1679280;84;20960;-78
2022/05/13 05:11:17;;;;;;;9.63;5.08;;;;;;;15.38;69.71;99297.14;1687514;84;21087;-80
2022/05/13 05:13:49;;;;;;;11.25;5.10;;;;;;;15.47;69.57;99300.70;1696844;84;20976;-80
2022/05/13 05:16:16;;;;;;;8.63;4.62;;;;;;;15.58;69.20;99304.16;1687351;84;21006;-79
2022/05/13 05:18:44;;;;;;;7.15;4.50;;;;;;;15.69;69.03;99313.27;1676886;84;21015;-78
2022/05/13 05:21:12;;;;;;;12.55;4.62;;;;;;;15.79;69.05;99307.69;1692754;84;21003;-78
2022/05/13 05:23:42;;;;;;;10.30;5.80;;;;;;;15.92;68.87;99301.00;1670007;84;21000;-78
2022/05/13 05:26:10;;;;;;;10.95;4.83;;;;;;;16.04;68.14;99302.23;1690297;84;21007;-79
2022/05/13 05:28:39;;;;;;;13.43;4.90;;;;;;;16.15;67.23;99309.61;1679372;84;21434;-77
2022/05/13 05:31:08;;;;;;;9.13;4.15;;;;;;;16.29;66.65;99301.97;1685275;84;20980;-80
2022/05/13 05:33:35;;;;;;;13.48;4.92;;;;;;;16.38;66.26;99304.66;1674952;84;20975;-78
2022/05/13 05:36:01;;;;;;;10.55;5.17;;;;;;;16.47;65.92;99314.27;1671012;84;21038;-81
2022/05/13 05:38:28;;;;;;;13.22;4.65;;;;;;;16.59;65.67;99314.61;1670534;84;21002;-81
2022/05/13 05:40:55;;;;;;;12.63;4.03;;;;;;;16.70;65.04;99309.25;1682649;84;20944;-79
2022/05/13 05:43:22;;;;;;;8.03;3.42;;;;;;;16.80;64.29;99312.77;1680356;84;21035;-80
2022/05/13 05:45:49;;;;;;;9.48;3.50;;;;;;;16.91;63.51;99306.59;1679349;84;21439;-79
2022/05/13 05:48:22;;;;;;;9.78;4.10;;;;;;;16.99;62.72;99306.19;1679846;84;21483;-81
2022/05/13 05:50:47;;;;;;;6.53;3.98;;;;;;;17.07;62.72;99302.77;1675801;84;20995;-82
2022/05/13 05:53:14;;;;;;;10.78;4.72;;;;;;;17.19;62.78;99312.67;1676459;84;20991;-82
2022/05/13 05:58:25;;;;;;;7.50;4.10;;;;;;;17.38;61.94;99305.19;1688528;84;21027;-79
2022/05/13 06:00:52;;;;;;;11.48;3.95;;;;;;;17.46;61.63;99304.33;1672857;84;21019;-80
2022/05/13 06:03:19;;;;;;;10.32;4.17;;;;;;;17.54;61.60;99298.70;1690459;84;20984;-79
2022/05/13 06:05:50;;;;;;;9.30;3.92;;;;;;;17.64;61.65;99307.34;1697411;84;20983;-81
2022/05/13 06:08:17;;;;;;;8.50;4.40;;;;;;;17.80;61.41;99305.25;1689624;83;20972;-79
2022/05/13 06:10:43;;;;;;;6.90;3.90;;;;;;;17.85;61.22;99296.70;1681399;84;21035;-80
2022/05/13 06:13:11;;;;;;;6.85;3.95;;;;;;;17.94;60.46;99300.63;1697089;84;20992;-81
2022/05/13 06:15:38;;;;;;;9.63;3.60;;;;;;;18.02;60.21;99300.59;1683175;84;20984;-80
2022/05/13 06:18:05;;;;;;;11.15;3.92;;;;;;;18.14;60.40;99305.69;1696552;83;21020;-79
2022/05/13 06:20:32;;;;;;;6.90;3.52;;;;;;;18.22;60.12;99302.20;1684890;83;21114;-80
2022/05/13 06:22:58;;;;;;;9.55;4.22;;;;;;;18.34;60.02;99302.46;1697018;83;21000;-79
2022/05/13 06:25:26;;;;;;;6.75;3.55;;;;;;;18.45;59.76;99293.05;1695397;84;21447;-80
2022/05/13 06:27:54;;;;;;;6.37;3.27;;;;;;;18.56;59.35;99298.20;1679295;84;20971;-79
2022/05/13 06:30:26;;;;;;;5.90;3.77;;;;;;;18.66;59.50;99305.53;1676930;84;21020;-78
2022/05/13 06:32:54;;;;;;;7.92;4.90;;;;;;;18.80;58.92;99294.70;1675805;84;20964;-82
2022/05/13 06:35:23;;;;;;;6.80;3.40;;;;;;;18.87;58.46;99298.23;1686335;83;21015;-81
2022/05/13 06:51:22;;;;;;;14.15;4.00;;;;;;;20.03;56.47;99296.37;1808938;79;22902;-78
2022/05/13 06:53:50;;;;;;;10.82;3.50;;;;;;;20.09;56.66;99293.80;1795509;80;21119;-78
2022/05/13 06:56:16;;;;;;;19.17;4.25;;;;;;;20.19;56.39;99293.64;1746508;80;21489;-77
2022/05/13 06:58:43;;;;;;;6.47;3.27;;;;;;;20.28;55.69;99289.57;1774084;80;21030;-77
2022/05/13 07:01:10;;;;;;;9.28;3.52;;;;;;;20.38;55.58;99285.41;1775482;80;21554;-77
2022/05/13 07:03:36;;;;;;;10.95;3.60;;;;;;;20.49;55.46;99288.69;1781614;80;21021;-77
2022/05/13 07:06:04;;;;;;;11.83;3.45;;;;;;;20.60;54.98;99286.25;1765142;80;21585;-77
2022/05/13 07:08:31;;;;;;;7.45;3.22;;;;;;;20.73;55.01;99285.02;1754148;80;21037;-77
2022/05/13 07:10:58;;;;;;;8.25;3.75;;;;;;;20.86;54.30;99280.61;1787003;80;21081;-77
2022/05/13 07:13:24;;;;;;;7.25;3.20;;;;;;;20.97;54.05;99281.70;1795529;80;21452;-78
2022/05/13 07:15:51;;;;;;;7.05;3.33;;;;;;;21.09;53.77;99281.39;1795304;80;21785;-78
2022/05/13 07:18:18;;;;;;;9.80;3.40;;;;;;;21.15;53.72;99279.66;1789904;80;21006;-78
2022/05/13 07:20:44;;;;;;;10.63;4.05;;;;;;;21.24;53.74;99270.64;1767024;80;21438;-78
2022/05/13 07:23:11;;;;;;;9.45;4.90;;;;;;;21.34;53.22;99268.23;1790461;80;21314;-78
2022/05/13 07:25:38;;;;;;;8.65;3.90;;;;;;;21.49;53.51;99267.73;1795742;80;21538;-79
2022/05/13 07:28:05;;;;;;;8.50;3.77;;;;;;;21.57;53.01;99266.73;1794908;80;21010;-78
2022/05/13 07:30:32;;;;;;;8.98;3.52;;;;;;;21.63;53.10;99262.83;1776769;80;22411;-78
2022/05/13 07:32:59;;;;;;;10.13;3.60;;;;;;;21.71;52.99;99260.98;1795457;80;21010;-78
2022/05/13 07:35:25;;;;;;;12.15;4.05;;;;;;;21.82;52.22;99267.21;1795510;80;21099;-78
2022/05/13 07:37:52;;;;;;;9.38;3.50;;;;;;;21.88;52.11;99268.59;1795527;80;20971;-78
2022/05/13 07:43:04;;;;;;;7.25;3.12;;;;;;;22.07;52.28;99262.88;1796149;80;20959;-79
2022/05/13 07:45:33;;;;;;;7.20;3.60;;;;;;;22.24;51.86;99269.66;1796163;80;20975;-79
2022/05/13 07:48:01;;;;;;;8.13;3.22;;;;;;;22.33;51.61;99266.36;1786146;80;21006;-78
2022/05/13 07:50:30;;;;;;;6.62;3.47;;;;;;;22.42;51.55;99264.85;1791906;80;21019;-79
2022/05/13 07:52:57;;;;;;;7.05;3.70;;;;;;;22.57;51.23;99262.92;1795359;80;21573;-77
2022/05/13 07:55:24;;;;;;;6.53;3.37;;;;;;;22.73;51.34;99263.49;1782496;80;20982;-78
2022/05/13 07:57:51;;;;;;;7.47;3.72;;;;;;;22.92;50.75;99263.47;1789306;80;20987;-78
2022/05/13 08:00:29;;;;;;;8.45;3.77;;;;;;;23.01;50.66;99258.33;1777032;80;21006;-79
2022/05/13 08:03:06;;;;;;;8.95;3.60;;;;;;;23.17;49.72;99264.70;1781732;80;21506;-78
2022/05/13 08:05:40;;;;;;;7.95;3.50;;;;;;;23.30;50.41;99255.81;1782036;80;21022;-78
2022/05/13 08:08:30;;;;;;;11.65;3.33;;;;;;;23.47;50.40;99254.06;1788895;80;21022;-78
2022/05/13 08:10:59;;;;;;;10.68;3.98;;;;;;;23.65;50.27;99257.61;1779034;80;21617;-78
2022/05/13 08:13:30;;;;;;;9.80;3.47;;;;;;;23.83;49.62;99257.55;1795353;80;21529;-78
2022/05/13 08:15:58;;;;;;;7.83;3.60;;;;;;;23.97;49.32;99250.70;1782556;80;21075;-77
2022/05/13 08:18:24;;;;;;;11.28;5.55;;;;;;;24.06;49.27;99245.14;1795387;80;21012;-77
2022/05/13 08:20:52;;;;;;;12.43;4.42;;;;;;;24.19;48.05;99240.56;1782814;80;21033;-78
2022/05/13 08:23:20;;;;;;;11.97;3.85;;;;;;;24.31;48.51;99239.20;1795450;80;20947;-77
2022/05/13 08:25:47;;;;;;;9.45;3.90;;;;;;;24.40;47.91;99245.12;1783928;80;21504;-77
2022/05/13 08:28:15;;;;;;;7.10;3.70;;;;;;;24.51;47.06;99241.62;1777265;80;21009;-78
2022/05/13 08:30:44;;;;;;;10.45;3.80;;;;;;;24.59;46.46;99230.75;1777430;80;21066;-78
2022/05/13 08:33:11;;;;;;;10.70;3.33;;;;;;;24.66;46.72;99231.08;1793096;80;20974;-78
2022/05/13 08:35:46;;;;;;;9.30;3.20;;;;;;;24.75;46.04;99228.14;1795433;80;21026;-78
2022/05/13 08:38:17;;;;;;;4.20;2.80;;;;;;;24.86;46.28;99225.95;1773835;80;21446;-78
2022/05/13 08:40:52;;;;;;;8.00;3.42;;;;;;;24.97;45.88;99223.27;1795322;79;21070;-78
2022/05/13 08:43:36;;;;;;;9.85;3.50;;;;;;;25.09;45.77;99220.03;1795658;80;20979;-78
2022/05/13 08:46:28;;;;;;;6.72;3.30;;;;;;;25.24;44.73;99220.62;1784893;80;21042;-78
2022/05/13 08:49:23;;;;;;;6.47;4.03;;;;;;;25.35;44.55;99221.90;1792288;80;21494;-77
2022/05/13 08:55:02;;;;;;;6.67;3.22;;;;;;;25.57;44.03;99215.09;1781842;80;21086;-78
2022/05/13 08:57:32;;;;;;;6.10;3.25;;;;;;;25.73;43.70;99217.78;1768404;80;20972;-78
2022/05/13 09:00:11;;;;;;;10.13;2.98;;;;;;;25.80;42.67;99221.12;1795342;80;20996;-78
2022/05/13 09:02:46;;;;;;;6.20;3.20;;;;;;;25.88;42.97;99216.43;1791588;80;21061;-77
2022/05/13 09:05:27;;;;;;;9.08;3.15;;;;;;;25.99;41.81;99213.72;1776856;80;21716;-77
2022/05/13 09:07:55;;;;;;;7.22;3.20;;;;;;;26.09;42.28;99215.59;1746409;80;21504;-77
2022/05/13 09:10:24;;;;;;;9.40;3.80;;;;;;;26.19;42.58;99207.97;1784644;80;21153;-78
2022/05/13 09:13:11;;;;;;;9.78;3.10;;;;;;;26.35;41.67;99207.45;1789852;80;20990;-77
2022/05/13 09:15:49;;;;;;;6.30;3.47;;;;;;;26.48;41.76;99199.22;1779980;80;21510;-77
2022/05/13 09:18:30;;;;;;;8.65;3.40;;;;;;;26.59;40.91;99195.11;1789355;80;21033;-77
2022/05/13 09:21:02;;;;;;;7.60;3.35;;;;;;;26.65;40.24;99191.55;1779882;80;21085;-78
2022/05/13 09:23:30;;;;;;;8.68;3.08;;;;;;;26.71;38.94;99189.16;1787185;80;21073;-78
2022/05/13 09:26:08;;;;;;;6.17;3.12;;;;;;;26.80;38.29;99187.50;1785477;80;21042;-77
2022/05/13 09:28:37;;;;;;;7.67;3.15;;;;;;;26.94;39.07;99174.23;1778220;80;21022;-77
2022/05/13 09:31:09;;;;;;;7.65;3.20;;;;;;;27.02;39.13;99173.03;1790321;80;20956;-78
2022/05/13 09:33:42;;;;;;;7.80;3.87;;;;;;;27.14;39.21;99175.05;1792288;80;20992;-78
2022/05/13 09:36:24;;;;;;;9.53;3.85;;;;;;;27.30;38.04;99167.83;1795613;80;21554;-78
2022/05/13 09:39:01;;;;;;;8.85;3.58;;;;;;;27.36;38.05;99168.08;1787047;80;20979;-78
2022/05/13 09:41:34;;;;;;;8.33;3.00;;;;;;;27.50;38.62;99153.43;1758742;80;21070;-79
2022/05/13 09:44:14;;;;;;;7.67;3.15;;;;;;;27.71;38.67;99147.02;1786907;80;21050;-78
2022/05/13 09:46:50;;;;;;;6.08;3.30;;;;;;;27.89;38.20;99147.95;1766053;80;20999;-78
2022/05/13 09:49:39;;;;;;;10.55;3.60;;;;;;;28.03;37.58;99141.77;1795688;80;21514;-78
2022/05/13 09:52:14;;;;;;;8.05;3.42;;;;;;;28.15;37.84;99137.42;1796712;80;21562;-78
2022/05/13 09:54:47;;;;;;;8.28;4.25;;;;;;;28.28;37.23;99134.38;1761219;81;21435;-78
2022/05/13 09:57:33;;;;;;;8.08;4.75;;;;;;;28.42;37.17;99132.18;1777857;80;20991;-78
2022/05/13 10:00:15;;;;;;;8.35;3.60;;;;;;;28.55;36.99;99129.98;1789536;80;20983;-79
2022/05/13 10:02:46;;;;;;;8.38;3.33;;;;;;;28.73;37.00;99123.31;1793130;80;21003;-79
2022/05/13 10:05:23;;;;;;;7.80;3.02;;;;;;;28.91;36.84;99121.95;1781352;80;21003;-78
2022/05/13 10:07:55;;;;;;;6.78;3.33;;;;;;;29.07;35.60;99116.72;1792063;80;21011;-78
2022/05/13 10:16:19;;;;;;;9.65;3.42;;;;;;;29.48;35.19;99104.92;1796564;80;21022;-78
2022/05/13 10:18:53;;;;;;;10.58;3.25;;;;;;;29.59;34.82;99101.66;1796579;80;21541;-78
2022/05/13 10:21:26;;;;;;;10.15;3.52;;;;;;;29.63;33.48;99096.31;1782916;80;21495;-80
2022/05/13 10:24:04;;;;;;;6.33;3.37;;;;;;;29.62;31.55;99089.27;1777537;80;20956;-80
2022/05/13 10:26:36;;;;;;;6.55;3.12;;;;;;;29.66;33.45;99086.09;1781570;80;21467;-79
2022/05/13 10:29:17;;;;;;;6.53;3.50;;;;;;;29.69;32.49;99078.25;1790745;80;21031;-79
2022/05/13 10:31:49;;;;;;;8.55;3.45;;;;;;;29.84;33.86;99065.92;1792628;80;21050;-79
2022/05/13 10:34:33;;;;;;;8.23;3.03;;;;;;;30.00;33.64;99070.48;1791250;80;21025;-79
2022/05/13 10:37:14;;;;;;;6.37;3.00;;;;;;;30.18;33.73;99066.84;1796824;80;21035;-79
2022/05/13 10:39:57;;;;;;;7.65;3.30;;;;;;;30.31;32.96;99061.38;1796796;80;21030;-78
2022/05/13 10:42:37;;;;;;;5.87;3.05;;;;;;;30.42;32.13;99053.52;1789068;79;21075;-78
2022/05/13 10:45:12;;;;;;;6.20;3.47;;;;;;;30.50;32.61;99048.15;1790530;80;21140;-78
2022/05/13 10:47:56;;;;;;;6.53;3.40;;;;;;;30.69;32.23;99045.61;1796223;80;21137;-78
2022/05/13 10:50:27;;;;;;;6.87;3.30;;;;;;;30.73;32.40;99042.92;1785980;80;21510;-79
2022/05/13 10:53:11;;;;;;;7.63;3.10;;;;;;;30.85;32.80;99039.39;1775312;80;21037;-78
2022/05/13 10:56:13;;;;;;;8.85;3.60;;;;;;;31.01;32.69;99028.33;1777399;80;21022;-78
2022/05/13 10:58:59;;;;;;;7.87;4.78;;;;;;;31.03;31.74;99031.16;1795585;80;21019;-78
2022/05/13 11:01:40;;;;;;;4.65;3.40;;;;;;;31.06;31.56;99034.03;1786321;80;20994;-79
2022/05/13 11:04:36;;;;;;;6.67;3.65;;;;;;;31.07;30.38;99033.00;1789967;80;21117;-78
2022/05/13 11:07:17;;;;;;;8.85;3.58;;;;;;;31.18;31.39;99023.25;1778674;80;21497;-78
2022/05/13 11:10:30;;;;;;;9.33;3.30;;;;;;;31.30;30.88;99015.14;1773511;80;21114;-78
2022/05/13 11:13:06;;;;;;;;;;;;;;;31.32;30.66;99017.15;1793483;80;20936;-79
2022/05/13 11:15:38;;;;;;;5.70;3.55;;;;;;;31.33;28.85;99009.92;1787967;80;20100;-79
2022/05/13 11:19:00;;;;;;;7.72;3.95;;;;;;;31.49;30.70;99012.56;1781926;80;21560;-79
2022/05/13 11:21:47;;;;;;;12.78;4.05;;;;;;;31.58;30.05;99003.97;1795726;80;21565;-78
2022/05/13 11:27:45;;;;;;;7.03;3.17;;;;;;;31.84;29.48;98992.07;1785336;80;21085;-80
2022/05/13 11:30:17;;;;;;;8.05;3.08;;;;;;;31.95;29.63;98991.64;1795566;80;21014;-79
2022/05/13 11:33:07;;;;;;;6.50;3.15;;;;;;;32.08;29.45;98989.23;1795822;80;21005;-79
2022/05/13 11:35:54;;;;;;;6.45;3.52;;;;;;;32.21;29.57;98981.06;1778476;80;21078;-78
2022/05/13 11:38:26;;;;;;;8.35;3.37;;;;;;;32.13;28.84;98971.20;1755758;80;20987;-78
2022/05/13 11:41:13;;;;;;;8.10;3.12;;;;;;;32.15;27.57;98974.55;1776372;80;21102;-79
2022/05/13 11:44:00;;;;;;;8.80;3.65;;;;;;;32.21;28.08;98970.30;1777643;80;21010;-77
2022/05/13 11:46:44;;;;;;;6.72;3.12;;;;;;;32.36;28.11;98960.42;1778246;80;21010;-79
2022/05/13 11:49:22;;;;;;;8.13;3.20;;;;;;;32.62;28.01;98950.62;1796440;80;21007;-79
2022/05/13 11:51:49;;;;;;;5.90;3.47;;;;;;;32.86;26.80;98955.41;1796337;80;21067;-79
2022/05/13 11:54:30;;;;;;;7.15;3.33;;;;;;;33.02;27.45;98943.09;1796788;80;21062;-80
2022/05/13 11:57:23;;;;;;;5.83;3.37;;;;;;;33.29;27.51;98940.27;1796606;80;21152;-80
2022/05/13 11:59:58;;;;;;;7.70;3.08;;;;;;;33.53;25.52;98936.09;1788080;80;21018;-79
2022/05/13 12:02:56;;;;;;;6.58;3.47;;;;;;;33.79;26.54;98937.73;1769392;80;21014;-80
2022/05/13 12:05:27;;;;;;;5.45;3.02;;;;;;;33.70;24.14;98936.18;1782985;80;21006;-80
2022/05/13 12:08:24;;;;;;;6.75;3.08;;;;;;;33.78;25.43;98919.88;1784229;80;21027;-80
2022/05/13 12:11:08;;;;;;;7.20;3.10;;;;;;;33.75;24.46;98914.89;1793885;80;21042;-80
2022/05/13 12:14:14;;;;;;;4.25;3.27;;;;;;;34.00;25.36;98911.30;1775048;80;21063;-79
2022/05/13 12:17:06;;;;;;;10.32;4.30;;;;;;;34.21;24.41;98911.79;1787614;80;21632;-80
2022/05/13 12:19:44;;;;;;;7.40;2.80;;;;;;;34.84;22.50;98911.00;1777742;80;22261;-79
2022/05/13 12:22:31;;;;;;;5.97;3.35;;;;;;;35.53;23.71;98901.08;1787821;80;21543;-80
2022/05/13 12:25:12;;;;;;;5.67;3.10;;;;;;;36.20;22.59;98893.38;1782508;80;21071;-80
2022/05/13 12:28:07;;;;;;;6.80;3.15;;;;;;;37.03;22.05;98894.15;1789753;80;20988;-81
2022/05/13 12:30:44;;;;;;;6.67;3.58;;;;;;;37.85;22.46;98881.84;1795319;80;21026;-83
2022/05/13 12:33:28;;;;;;;4.65;3.15;;;;;;;38.71;21.75;98893.27;1778872;80;21041;-81
2022/05/13 12:39:09;;;;;;;4.97;3.00;;;;;;;38.42;18.06;98894.83;1795154;80;20975;-81